sensor_id;sensor_type;location;lat;lon;timestamp;temperature;humidity
9527;DHT22;4802;51.494;6.770;2022-09-27T00:00:16;11.60;99.90
9527;DHT22;4802;51.494;6.770;2022-09-27T00:02:47;11.50;99.90
9527;DHT22;4802;51.494;6.770;2022-09-27T00:05:18;11.60;99.90
9527;DHT22;4802;51.494;6.770;2022-09-27T00:07:48;11.70;99.90
9527;DHT22;4802;51.494;6.770;2022-09-27T00:10:17;11.70;99.90
9527;DHT22;4802;51.494;6.770;2022-09-27T00:12:49;11.70;99.90
9527;DHT22;4802;51.494;6.770;2022-09-27T00:15:19;11.70;99.90
9527;DHT22;4802;51.494;6.770;2022-09-27T00:17:49;11.60;99.90
9527;DHT22;4802;51.494;6.770;2022-09-27T00:20:19;11.60;99.90
9527;DHT22;4802;51.494;6.770;2022-09-27T00:22:49;11.60;99.90
9527;DHT22;4802;51.494;6.770;2022-09-27T00:25:20;11.60;99.90
9527;DHT22;4802;51.494;6.770;2022-09-27T00:27:50;11.50;99.90
9527;DHT22;4802;51.494;6.770;2022-09-27T00:30:20;11.50;99.90
9527;DHT22;4802;51.494;6.770;2022-09-27T00:32:50;11.40;99.90
9527;DHT22;4802;51.494;6.770;2022-09-27T00:35:20;11.50;99.90
9527;DHT22;4802;51.494;6.770;2022-09-27T00:37:52;11.50;99.90
9527;DHT22;4802;51.494;6.770;2022-09-27T00:40:22;11.50;99.90
9527;DHT22;4802;51.494;6.770;2022-09-27T00:42:54;11.50;99.90
9527;DHT22;4802;51.494;6.770;2022-09-27T00:45:23;11.50;99.90
9527;DHT22;4802;51.494;6.770;2022-09-27T00:47:55;11.50;99.90
9527;DHT22;4802;51.494;6.770;2022-09-27T00:50:28;11.60;99.90
9527;DHT22;4802;51.494;6.770;2022-09-27T00:53:07;11.50;99.90
9527;DHT22;4802;51.494;6.770;2022-09-27T00:55:41;11.60;99.90
9527;DHT22;4802;51.494;6.770;2022-09-27T00:58:15;11.60;99.90
9527;DHT22;4802;51.494;6.770;2022-09-27T01:00:50;11.80;99.90
9527;DHT22;4802;51.494;6.770;2022-09-27T01:03:25;11.50;99.90
9527;DHT22;4802;51.494;6.770;2022-09-27T01:05:58;11.50;99.90
9527;DHT22;4802;51.494;6.770;2022-09-27T01:08:27;11.50;99.90
9527;DHT22;4802;51.494;6.770;2022-09-27T01:11:10;11.50;99.90
9527;DHT22;4802;51.494;6.770;2022-09-27T01:13:54;11.50;99.90
9527;DHT22;4802;51.494;6.770;2022-09-27T01:16:33;11.60;99.90
9527;DHT22;4802;51.494;6.770;2022-09-27T01:19:12;11.60;99.90
9527;DHT22;4802;51.494;6.770;2022-09-27T01:21:50;11.60;99.90
9527;DHT22;4802;51.494;6.770;2022-09-27T01:24:41;11.50;99.90
9527;DHT22;4802;51.494;6.770;2022-09-27T01:30:25;11.50;99.90
9527;DHT22;4802;51.494;6.770;2022-09-27T01:33:20;11.50;95.50
9527;DHT22;4802;51.494;6.770;2022-09-27T01:36:03;11.50;84.80
9527;DHT22;4802;51.494;6.770;2022-09-27T01:38:42;11.50;80.40
9527;DHT22;4802;51.494;6.770;2022-09-27T01:41:20;11.50;99.90
9527;DHT22;4802;51.494;6.770;2022-09-27T01:43:56;11.50;48.60
9527;DHT22;4802;51.494;6.770;2022-09-27T01:46:34;11.50;1.00
9527;DHT22;4802;51.494;6.770;2022-09-27T01:49:09;11.50;1.00
9527;DHT22;4802;51.494;6.770;2022-09-27T01:51:44;11.50;1.00
9527;DHT22;4802;51.494;6.770;2022-09-27T01:54:18;11.40;30.40
9527;DHT22;4802;51.494;6.770;2022-09-27T01:56:51;11.40;85.40
9527;DHT22;4802;51.494;6.770;2022-09-27T01:59:25;11.40;19.90
9527;DHT22;4802;51.494;6.770;2022-09-27T02:02:01;11.40;64.60
9527;DHT22;4802;51.494;6.770;2022-09-27T02:04:33;11.40;41.50
9527;DHT22;4802;51.494;6.770;2022-09-27T02:07:09;11.40;64.30
9527;DHT22;4802;51.494;6.770;2022-09-27T02:09:41;11.50;99.90
9527;DHT22;4802;51.494;6.770;2022-09-27T02:12:19;11.50;80.20
9527;DHT22;4802;51.494;6.770;2022-09-27T02:14:52;11.60;56.40
9527;DHT22;4802;51.494;6.770;2022-09-27T02:17:30;11.50;1.00
9527;DHT22;4802;51.494;6.770;2022-09-27T02:20:06;11.50;1.00
9527;DHT22;4802;51.494;6.770;2022-09-27T02:22:38;11.50;25.40
9527;DHT22;4802;51.494;6.770;2022-09-27T02:25:15;11.50;1.00
9527;DHT22;4802;51.494;6.770;2022-09-27T02:27:51;11.50;1.00
9527;DHT22;4802;51.494;6.770;2022-09-27T02:30:22;11.60;1.00
9527;DHT22;4802;51.494;6.770;2022-09-27T02:32:53;11.60;99.90
9527;DHT22;4802;51.494;6.770;2022-09-27T02:35:24;11.60;99.90
9527;DHT22;4802;51.494;6.770;2022-09-27T02:37:54;11.50;37.60
9527;DHT22;4802;51.494;6.770;2022-09-27T02:40:25;11.60;99.90
9527;DHT22;4802;51.494;6.770;2022-09-27T02:42:57;11.60;99.90
9527;DHT22;4802;51.494;6.770;2022-09-27T02:45:30;11.60;99.90
9527;DHT22;4802;51.494;6.770;2022-09-27T02:48:13;11.50;99.90
9527;DHT22;4802;51.494;6.770;2022-09-27T02:51:02;11.60;99.90
9527;DHT22;4802;51.494;6.770;2022-09-27T02:53:44;11.50;1.00
9527;DHT22;4802;51.494;6.770;2022-09-27T02:56:21;11.40;99.90
9527;DHT22;4802;51.494;6.770;2022-09-27T02:59:02;11.30;99.90
9527;DHT22;4802;51.494;6.770;2022-09-27T03:01:39;11.30;1.00
9527;DHT22;4802;51.494;6.770;2022-09-27T03:04:17;11.40;99.90
9527;DHT22;4802;51.494;6.770;2022-09-27T03:06:50;11.40;1.00
9527;DHT22;4802;51.494;6.770;2022-09-27T03:09:21;11.40;99.90
9527;DHT22;4802;51.494;6.770;2022-09-27T03:11:50;11.30;99.90
9527;DHT22;4802;51.494;6.770;2022-09-27T03:14:19;11.20;99.90
9527;DHT22;4802;51.494;6.770;2022-09-27T03:16:48;11.20;1.00
9527;DHT22;4802;51.494;6.770;2022-09-27T03:19:20;11.20;35.00
9527;DHT22;4802;51.494;6.770;2022-09-27T03:21:49;11.30;8.10
9527;DHT22;4802;51.494;6.770;2022-09-27T03:24:18;11.20;1.00
9527;DHT22;4802;51.494;6.770;2022-09-27T03:26:47;11.20;1.00
9527;DHT22;4802;51.494;6.770;2022-09-27T03:29:15;11.10;1.00
9527;DHT22;4802;51.494;6.770;2022-09-27T03:31:44;11.10;99.90
9527;DHT22;4802;51.494;6.770;2022-09-27T03:34:13;11.00;99.90
9527;DHT22;4802;51.494;6.770;2022-09-27T03:36:44;11.00;1.00
9527;DHT22;4802;51.494;6.770;2022-09-27T03:39:13;11.00;1.00
9527;DHT22;4802;51.494;6.770;2022-09-27T03:41:42;11.00;99.90
9527;DHT22;4802;51.494;6.770;2022-09-27T03:44:11;10.90;1.00
9527;DHT22;4802;51.494;6.770;2022-09-27T03:46:40;10.90;13.50
9527;DHT22;4802;51.494;6.770;2022-09-27T03:49:09;10.90;1.10
9527;DHT22;4802;51.494;6.770;2022-09-27T03:51:38;10.80;99.90
9527;DHT22;4802;51.494;6.770;2022-09-27T03:54:09;10.80;1.00
9527;DHT22;4802;51.494;6.770;2022-09-27T03:56:41;10.80;99.90
9527;DHT22;4802;51.494;6.770;2022-09-27T03:59:10;10.70;99.90
9527;DHT22;4802;51.494;6.770;2022-09-27T04:01:39;10.60;1.00
9527;DHT22;4802;51.494;6.770;2022-09-27T04:04:08;10.80;99.90
9527;DHT22;4802;51.494;6.770;2022-09-27T04:06:37;10.70;99.90
9527;DHT22;4802;51.494;6.770;2022-09-27T04:09:06;10.50;1.00
9527;DHT22;4802;51.494;6.770;2022-09-27T04:11:37;10.50;99.90
9527;DHT22;4802;51.494;6.770;2022-09-27T04:14:06;10.50;99.90
9527;DHT22;4802;51.494;6.770;2022-09-27T04:16:39;10.40;99.90
9527;DHT22;4802;51.494;6.770;2022-09-27T04:19:08;10.40;99.90
9527;DHT22;4802;51.494;6.770;2022-09-27T04:21:38;10.40;1.00
9527;DHT22;4802;51.494;6.770;2022-09-27T04:24:07;10.40;1.00
9527;DHT22;4802;51.494;6.770;2022-09-27T04:26:39;10.40;99.90
9527;DHT22;4802;51.494;6.770;2022-09-27T04:29:08;10.10;99.90
9527;DHT22;4802;51.494;6.770;2022-09-27T04:31:37;10.30;99.90
9527;DHT22;4802;51.494;6.770;2022-09-27T04:34:06;10.30;99.90
9527;DHT22;4802;51.494;6.770;2022-09-27T04:36:35;10.30;99.90
9527;DHT22;4802;51.494;6.770;2022-09-27T04:39:05;10.30;1.00
9527;DHT22;4802;51.494;6.770;2022-09-27T04:41:35;10.30;1.00
9527;DHT22;4802;51.494;6.770;2022-09-27T04:44:05;11.50;99.90
9527;DHT22;4802;51.494;6.770;2022-09-27T04:46:34;11.90;99.90
9527;DHT22;4802;51.494;6.770;2022-09-27T04:49:03;12.30;14.10
9527;DHT22;4802;51.494;6.770;2022-09-27T04:51:32;11.80;99.90
9527;DHT22;4802;51.494;6.770;2022-09-27T04:54:01;11.80;99.90
9527;DHT22;4802;51.494;6.770;2022-09-27T04:56:31;11.70;1.00
9527;DHT22;4802;51.494;6.770;2022-09-27T04:59:00;11.40;1.00
9527;DHT22;4802;51.494;6.770;2022-09-27T05:01:46;11.70;99.90
9527;DHT22;4802;51.494;6.770;2022-09-27T05:04:33;11.90;99.90
9527;DHT22;4802;51.494;6.770;2022-09-27T05:07:09;11.60;99.90
9527;DHT22;4802;51.494;6.770;2022-09-27T05:09:43;11.20;99.90
9527;DHT22;4802;51.494;6.770;2022-09-27T05:12:18;11.10;99.90
9527;DHT22;4802;51.494;6.770;2022-09-27T05:14:49;10.80;99.90
9527;DHT22;4802;51.494;6.770;2022-09-27T05:17:21;10.70;99.90
9527;DHT22;4802;51.494;6.770;2022-09-27T05:19:50;10.60;1.00
9527;DHT22;4802;51.494;6.770;2022-09-27T05:22:21;10.70;1.00
9527;DHT22;4802;51.494;6.770;2022-09-27T05:24:50;11.00;99.90
9527;DHT22;4802;51.494;6.770;2022-09-27T05:27:19;11.60;99.90
9527;DHT22;4802;51.494;6.770;2022-09-27T05:29:48;11.60;99.90
9527;DHT22;4802;51.494;6.770;2022-09-27T05:32:17;12.20;99.90
9527;DHT22;4802;51.494;6.770;2022-09-27T05:34:47;11.50;5.60
9527;DHT22;4802;51.494;6.770;2022-09-27T05:37:21;11.00;92.40
9527;DHT22;4802;51.494;6.770;2022-09-27T05:39:50;10.60;99.90
9527;DHT22;4802;51.494;6.770;2022-09-27T05:42:19;10.60;99.90
9527;DHT22;4802;51.494;6.770;2022-09-27T05:44:48;10.30;99.90
9527;DHT22;4802;51.494;6.770;2022-09-27T05:47:18;10.20;99.90
9527;DHT22;4802;51.494;6.770;2022-09-27T05:49:48;10.10;1.00
9527;DHT22;4802;51.494;6.770;2022-09-27T05:52:17;10.10;1.00
9527;DHT22;4802;51.494;6.770;2022-09-27T05:54:49;10.00;1.00
9527;DHT22;4802;51.494;6.770;2022-09-27T05:57:18;10.10;1.00
9527;DHT22;4802;51.494;6.770;2022-09-27T05:59:47;10.10;1.00
9527;DHT22;4802;51.494;6.770;2022-09-27T06:02:16;10.20;99.90
9527;DHT22;4802;51.494;6.770;2022-09-27T06:04:48;10.20;1.00
9527;DHT22;4802;51.494;6.770;2022-09-27T06:07:17;10.10;1.00
9527;DHT22;4802;51.494;6.770;2022-09-27T06:09:46;10.20;1.00
9527;DHT22;4802;51.494;6.770;2022-09-27T06:12:16;10.20;99.90
9527;DHT22;4802;51.494;6.770;2022-09-27T06:14:46;10.40;99.90
9527;DHT22;4802;51.494;6.770;2022-09-27T06:17:16;10.20;99.90
9527;DHT22;4802;51.494;6.770;2022-09-27T06:19:45;10.20;99.90
9527;DHT22;4802;51.494;6.770;2022-09-27T06:22:17;10.20;99.90
9527;DHT22;4802;51.494;6.770;2022-09-27T06:24:46;10.20;99.90
9527;DHT22;4802;51.494;6.770;2022-09-27T06:27:15;10.20;99.90
9527;DHT22;4802;51.494;6.770;2022-09-27T06:29:45;10.20;99.90
9527;DHT22;4802;51.494;6.770;2022-09-27T06:32:14;10.20;99.90
9527;DHT22;4802;51.494;6.770;2022-09-27T06:34:43;10.20;99.90
9527;DHT22;4802;51.494;6.770;2022-09-27T06:37:12;10.20;99.90
9527;DHT22;4802;51.494;6.770;2022-09-27T06:39:43;10.20;99.90
9527;DHT22;4802;51.494;6.770;2022-09-27T06:42:12;10.20;99.90
9527;DHT22;4802;51.494;6.770;2022-09-27T06:44:48;10.20;99.90
9527;DHT22;4802;51.494;6.770;2022-09-27T06:47:17;10.30;99.90
9527;DHT22;4802;51.494;6.770;2022-09-27T06:49:45;10.20;99.90
9527;DHT22;4802;51.494;6.770;2022-09-27T06:52:15;10.00;99.90
9527;DHT22;4802;51.494;6.770;2022-09-27T06:54:46;10.30;99.90
9527;DHT22;4802;51.494;6.770;2022-09-27T06:57:15;10.30;99.90
9527;DHT22;4802;51.494;6.770;2022-09-27T07:00:05;10.30;99.90
9527;DHT22;4802;51.494;6.770;2022-09-27T07:02:53;10.40;99.90
9527;DHT22;4802;51.494;6.770;2022-09-27T07:05:25;10.50;99.90
9527;DHT22;4802;51.494;6.770;2022-09-27T07:07:55;10.50;99.90
9527;DHT22;4802;51.494;6.770;2022-09-27T07:10:27;10.50;23.30
9527;DHT22;4802;51.494;6.770;2022-09-27T07:13:03;10.50;29.80
9527;DHT22;4802;51.494;6.770;2022-09-27T07:15:35;10.50;19.70
9527;DHT22;4802;51.494;6.770;2022-09-27T07:18:06;10.60;1.00
9527;DHT22;4802;51.494;6.770;2022-09-27T07:20:35;10.70;1.00
9527;DHT22;4802;51.494;6.770;2022-09-27T07:23:07;10.80;5.80
9527;DHT22;4802;51.494;6.770;2022-09-27T07:25:39;10.90;7.60
9527;DHT22;4802;51.494;6.770;2022-09-27T07:28:17;11.00;1.00
9527;DHT22;4802;51.494;6.770;2022-09-27T07:30:52;11.10;1.00
9527;DHT22;4802;51.494;6.770;2022-09-27T07:33:22;11.30;1.00
9527;DHT22;4802;51.494;6.770;2022-09-27T07:35:53;11.50;1.00
9527;DHT22;4802;51.494;6.770;2022-09-27T07:38:23;11.70;1.00
9527;DHT22;4802;51.494;6.770;2022-09-27T07:40:54;11.80;1.00
9527;DHT22;4802;51.494;6.770;2022-09-27T07:43:24;11.70;1.00
9527;DHT22;4802;51.494;6.770;2022-09-27T07:45:55;11.80;1.00
9527;DHT22;4802;51.494;6.770;2022-09-27T07:48:25;11.30;1.00
9527;DHT22;4802;51.494;6.770;2022-09-27T07:50:55;11.70;1.00
9527;DHT22;4802;51.494;6.770;2022-09-27T07:53:24;11.50;1.00
9527;DHT22;4802;51.494;6.770;2022-09-27T07:55:59;11.40;1.00
9527;DHT22;4802;51.494;6.770;2022-09-27T07:58:29;11.30;1.00
9527;DHT22;4802;51.494;6.770;2022-09-27T08:01:00;11.20;1.00
9527;DHT22;4802;51.494;6.770;2022-09-27T08:03:30;11.10;1.00
9527;DHT22;4802;51.494;6.770;2022-09-27T08:06:01;11.10;1.00
9527;DHT22;4802;51.494;6.770;2022-09-27T08:08:33;10.90;1.00
9527;DHT22;4802;51.494;6.770;2022-09-27T08:11:14;11.50;1.00
9527;DHT22;4802;51.494;6.770;2022-09-27T08:13:45;11.90;1.00
9527;DHT22;4802;51.494;6.770;2022-09-27T08:16:19;12.20;1.00
9527;DHT22;4802;51.494;6.770;2022-09-27T08:18:52;12.50;1.00
9527;DHT22;4802;51.494;6.770;2022-09-27T08:21:22;12.40;1.00
9527;DHT22;4802;51.494;6.770;2022-09-27T08:23:53;12.30;1.00
9527;DHT22;4802;51.494;6.770;2022-09-27T08:26:26;12.20;1.00
9527;DHT22;4802;51.494;6.770;2022-09-27T08:28:56;12.20;1.00
9527;DHT22;4802;51.494;6.770;2022-09-27T08:31:27;12.20;1.00
9527;DHT22;4802;51.494;6.770;2022-09-27T08:33:59;11.90;1.00
9527;DHT22;4802;51.494;6.770;2022-09-27T08:36:28;11.70;1.00
9527;DHT22;4802;51.494;6.770;2022-09-27T08:38:58;11.60;1.00
9527;DHT22;4802;51.494;6.770;2022-09-27T08:41:37;11.30;1.00
9527;DHT22;4802;51.494;6.770;2022-09-27T08:44:13;11.50;1.00
9527;DHT22;4802;51.494;6.770;2022-09-27T08:46:52;11.50;1.00
9527;DHT22;4802;51.494;6.770;2022-09-27T08:49:31;11.50;1.00
9527;DHT22;4802;51.494;6.770;2022-09-27T08:52:04;11.50;1.00
9527;DHT22;4802;51.494;6.770;2022-09-27T08:54:35;11.60;1.00
9527;DHT22;4802;51.494;6.770;2022-09-27T08:57:10;11.60;1.00
9527;DHT22;4802;51.494;6.770;2022-09-27T08:59:41;11.50;1.00
9527;DHT22;4802;51.494;6.770;2022-09-27T09:02:16;11.50;1.00
9527;DHT22;4802;51.494;6.770;2022-09-27T09:04:49;11.50;1.00
9527;DHT22;4802;51.494;6.770;2022-09-27T09:10:27;11.30;1.00
9527;DHT22;4802;51.494;6.770;2022-09-27T09:13:28;11.30;1.00
9527;DHT22;4802;51.494;6.770;2022-09-27T09:16:09;11.20;1.00
9527;DHT22;4802;51.494;6.770;2022-09-27T09:18:56;11.10;8.70
9527;DHT22;4802;51.494;6.770;2022-09-27T09:21:37;10.70;1.00
9527;DHT22;4802;51.494;6.770;2022-09-27T09:24:27;11.20;18.50
9527;DHT22;4802;51.494;6.770;2022-09-27T09:27:04;11.20;52.90
9527;DHT22;4802;51.494;6.770;2022-09-27T09:30:00;11.10;33.50
9527;DHT22;4802;51.494;6.770;2022-09-27T09:32:41;11.20;35.60
9527;DHT22;4802;51.494;6.770;2022-09-27T09:35:18;11.30;99.90
9527;DHT22;4802;51.494;6.770;2022-09-27T09:37:57;11.40;99.90
9527;DHT22;4802;51.494;6.770;2022-09-27T09:40:42;11.40;89.70
9527;DHT22;4802;51.494;6.770;2022-09-27T09:43:17;11.30;5.40
9527;DHT22;4802;51.494;6.770;2022-09-27T09:45:55;11.30;50.20
9527;DHT22;4802;51.494;6.770;2022-09-27T09:48:31;11.40;1.00
9527;DHT22;4802;51.494;6.770;2022-09-27T09:51:09;11.40;53.70
9527;DHT22;4802;51.494;6.770;2022-09-27T09:53:45;11.20;66.10
9527;DHT22;4802;51.494;6.770;2022-09-27T09:56:23;11.60;99.90
9527;DHT22;4802;51.494;6.770;2022-09-27T09:58:56;11.70;95.50
9527;DHT22;4802;51.494;6.770;2022-09-27T10:01:33;11.70;67.10
9527;DHT22;4802;51.494;6.770;2022-09-27T10:04:09;12.20;22.80
9527;DHT22;4802;51.494;6.770;2022-09-27T10:06:44;11.80;22.10
9527;DHT22;4802;51.494;6.770;2022-09-27T10:09:28;11.80;6.40
9527;DHT22;4802;51.494;6.770;2022-09-27T10:12:00;11.80;1.00
9527;DHT22;4802;51.494;6.770;2022-09-27T10:14:30;11.80;1.00
9527;DHT22;4802;51.494;6.770;2022-09-27T10:17:10;11.60;1.00
9527;DHT22;4802;51.494;6.770;2022-09-27T10:19:49;12.20;1.00
9527;DHT22;4802;51.494;6.770;2022-09-27T10:22:30;12.40;1.00
9527;DHT22;4802;51.494;6.770;2022-09-27T10:25:11;12.50;1.00
9527;DHT22;4802;51.494;6.770;2022-09-27T10:27:48;12.70;1.00
9527;DHT22;4802;51.494;6.770;2022-09-27T10:30:28;13.10;1.00
9527;DHT22;4802;51.494;6.770;2022-09-27T10:33:13;13.30;1.00
9527;DHT22;4802;51.494;6.770;2022-09-27T10:35:46;13.60;1.00
9527;DHT22;4802;51.494;6.770;2022-09-27T10:38:26;13.70;1.00
9527;DHT22;4802;51.494;6.770;2022-09-27T10:41:21;13.80;1.00
9527;DHT22;4802;51.494;6.770;2022-09-27T10:43:56;14.10;1.00
9527;DHT22;4802;51.494;6.770;2022-09-27T10:46:32;13.90;1.00
9527;DHT22;4802;51.494;6.770;2022-09-27T10:49:40;13.80;1.00
9527;DHT22;4802;51.494;6.770;2022-09-27T10:52:22;13.40;1.00
9527;DHT22;4802;51.494;6.770;2022-09-27T10:55:27;13.00;1.00
9527;DHT22;4802;51.494;6.770;2022-09-27T10:58:17;13.00;1.00
9527;DHT22;4802;51.494;6.770;2022-09-27T11:00:57;12.60;1.00
9527;DHT22;4802;51.494;6.770;2022-09-27T11:03:32;12.80;1.00
9527;DHT22;4802;51.494;6.770;2022-09-27T11:06:28;12.90;1.00
9527;DHT22;4802;51.494;6.770;2022-09-27T11:09:20;12.90;1.00
9527;DHT22;4802;51.494;6.770;2022-09-27T11:12:07;13.00;1.00
9527;DHT22;4802;51.494;6.770;2022-09-27T11:14:54;13.00;1.00
9527;DHT22;4802;51.494;6.770;2022-09-27T11:17:32;12.90;1.00
9527;DHT22;4802;51.494;6.770;2022-09-27T11:20:23;13.10;1.00
9527;DHT22;4802;51.494;6.770;2022-09-27T11:23:20;13.20;1.00
9527;DHT22;4802;51.494;6.770;2022-09-27T11:26:11;13.20;1.00
9527;DHT22;4802;51.494;6.770;2022-09-27T11:28:54;13.20;1.00
9527;DHT22;4802;51.494;6.770;2022-09-27T11:31:45;13.10;1.00
9527;DHT22;4802;51.494;6.770;2022-09-27T11:34:38;13.00;1.00
9527;DHT22;4802;51.494;6.770;2022-09-27T11:37:27;13.20;1.00
9527;DHT22;4802;51.494;6.770;2022-09-27T11:40:14;13.30;1.00
9527;DHT22;4802;51.494;6.770;2022-09-27T11:43:18;13.20;1.00
9527;DHT22;4802;51.494;6.770;2022-09-27T11:46:08;13.10;1.00
9527;DHT22;4802;51.494;6.770;2022-09-27T11:49:16;13.00;1.00
9527;DHT22;4802;51.494;6.770;2022-09-27T11:52:21;12.80;1.00
9527;DHT22;4802;51.494;6.770;2022-09-27T12:07:22;13.20;1.00
9527;DHT22;4802;51.494;6.770;2022-09-27T12:10:03;13.10;1.00
9527;DHT22;4802;51.494;6.770;2022-09-27T12:12:57;12.90;1.00
9527;DHT22;4802;51.494;6.770;2022-09-27T12:15:43;12.70;1.00
9527;DHT22;4802;51.494;6.770;2022-09-27T12:18:25;12.50;1.00
9527;DHT22;4802;51.494;6.770;2022-09-27T12:21:03;12.60;1.00
9527;DHT22;4802;51.494;6.770;2022-09-27T12:23:53;12.50;1.00
9527;DHT22;4802;51.494;6.770;2022-09-27T12:26:29;12.40;1.00
9527;DHT22;4802;51.494;6.770;2022-09-27T12:29:11;12.10;1.00
9527;DHT22;4802;51.494;6.770;2022-09-27T12:32:14;12.30;1.00
9527;DHT22;4802;51.494;6.770;2022-09-27T12:34:58;12.20;1.00
9527;DHT22;4802;51.494;6.770;2022-09-27T12:37:33;12.50;1.00
9527;DHT22;4802;51.494;6.770;2022-09-27T12:40:15;12.30;1.00
9527;DHT22;4802;51.494;6.770;2022-09-27T12:42:53;12.20;1.00
9527;DHT22;4802;51.494;6.770;2022-09-27T12:45:33;12.30;1.00
9527;DHT22;4802;51.494;6.770;2022-09-27T12:48:11;12.40;1.00
9527;DHT22;4802;51.494;6.770;2022-09-27T12:50:48;12.50;1.00
9527;DHT22;4802;51.494;6.770;2022-09-27T12:53:24;12.70;1.00
9527;DHT22;4802;51.494;6.770;2022-09-27T12:56:08;12.80;1.00
9527;DHT22;4802;51.494;6.770;2022-09-27T12:59:17;12.90;1.00
9527;DHT22;4802;51.494;6.770;2022-09-27T13:02:01;12.90;1.00
9527;DHT22;4802;51.494;6.770;2022-09-27T13:04:59;12.90;1.00
9527;DHT22;4802;51.494;6.770;2022-09-27T13:07:42;12.90;1.00
9527;DHT22;4802;51.494;6.770;2022-09-27T13:10:34;13.00;1.00
9527;DHT22;4802;51.494;6.770;2022-09-27T13:13:16;12.90;1.00
9527;DHT22;4802;51.494;6.770;2022-09-27T13:15:46;13.00;1.00
9527;DHT22;4802;51.494;6.770;2022-09-27T13:18:50;13.10;1.00
9527;DHT22;4802;51.494;6.770;2022-09-27T13:21:56;13.00;1.00
9527;DHT22;4802;51.494;6.770;2022-09-27T13:24:45;12.90;1.00
9527;DHT22;4802;51.494;6.770;2022-09-27T13:27:37;12.90;1.00
9527;DHT22;4802;51.494;6.770;2022-09-27T13:33:41;12.90;1.00
9527;DHT22;4802;51.494;6.770;2022-09-27T13:36:19;13.10;1.00
9527;DHT22;4802;51.494;6.770;2022-09-27T13:39:03;13.20;1.00
9527;DHT22;4802;51.494;6.770;2022-09-27T13:41:40;13.40;1.00
9527;DHT22;4802;51.494;6.770;2022-09-27T13:44:23;13.50;1.00
9527;DHT22;4802;51.494;6.770;2022-09-27T13:47:01;13.70;1.00
9527;DHT22;4802;51.494;6.770;2022-09-27T13:49:36;13.70;1.00
9527;DHT22;4802;51.494;6.770;2022-09-27T13:52:19;13.60;1.00
9527;DHT22;4802;51.494;6.770;2022-09-27T13:54:53;13.60;1.00
9527;DHT22;4802;51.494;6.770;2022-09-27T13:57:45;13.60;1.00
9527;DHT22;4802;51.494;6.770;2022-09-27T14:00:18;13.70;1.00
9527;DHT22;4802;51.494;6.770;2022-09-27T14:02:58;13.70;1.00
9527;DHT22;4802;51.494;6.770;2022-09-27T14:05:34;13.70;1.00
9527;DHT22;4802;51.494;6.770;2022-09-27T14:08:11;13.80;1.00
9527;DHT22;4802;51.494;6.770;2022-09-27T14:10:45;13.80;1.00
9527;DHT22;4802;51.494;6.770;2022-09-27T14:13:18;13.70;1.00
9527;DHT22;4802;51.494;6.770;2022-09-27T14:15:49;13.60;1.00
9527;DHT22;4802;51.494;6.770;2022-09-27T14:18:21;13.50;1.00
9527;DHT22;4802;51.494;6.770;2022-09-27T14:20:52;13.40;1.00
9527;DHT22;4802;51.494;6.770;2022-09-27T14:23:24;13.40;1.00
9527;DHT22;4802;51.494;6.770;2022-09-27T14:25:54;13.40;1.00
9527;DHT22;4802;51.494;6.770;2022-09-27T14:28:27;13.50;1.00
9527;DHT22;4802;51.494;6.770;2022-09-27T14:31:13;13.60;1.00
9527;DHT22;4802;51.494;6.770;2022-09-27T14:33:48;13.50;1.00
9527;DHT22;4802;51.494;6.770;2022-09-27T14:36:25;13.50;1.00
9527;DHT22;4802;51.494;6.770;2022-09-27T14:39:19;13.60;1.00
9527;DHT22;4802;51.494;6.770;2022-09-27T14:41:52;13.50;1.00
9527;DHT22;4802;51.494;6.770;2022-09-27T14:44:24;13.30;1.00
9527;DHT22;4802;51.494;6.770;2022-09-27T14:47:08;13.30;1.00
9527;DHT22;4802;51.494;6.770;2022-09-27T14:49:46;13.30;1.00
9527;DHT22;4802;51.494;6.770;2022-09-27T14:52:20;13.30;1.00
9527;DHT22;4802;51.494;6.770;2022-09-27T14:54:57;13.20;1.00
9527;DHT22;4802;51.494;6.770;2022-09-27T14:57:28;13.20;1.00
9527;DHT22;4802;51.494;6.770;2022-09-27T15:00:01;13.30;1.00
9527;DHT22;4802;51.494;6.770;2022-09-27T15:02:40;13.30;1.00
9527;DHT22;4802;51.494;6.770;2022-09-27T15:05:15;13.30;1.00
9527;DHT22;4802;51.494;6.770;2022-09-27T15:07:49;13.60;1.00
9527;DHT22;4802;51.494;6.770;2022-09-27T15:10:21;13.60;1.00
9527;DHT22;4802;51.494;6.770;2022-09-27T15:12:54;13.50;1.00
9527;DHT22;4802;51.494;6.770;2022-09-27T15:15:28;13.50;1.00
9527;DHT22;4802;51.494;6.770;2022-09-27T15:17:58;13.60;1.00
9527;DHT22;4802;51.494;6.770;2022-09-27T15:20:29;13.60;1.00
9527;DHT22;4802;51.494;6.770;2022-09-27T15:23:04;13.60;1.00
9527;DHT22;4802;51.494;6.770;2022-09-27T15:25:35;13.60;1.00
9527;DHT22;4802;51.494;6.770;2022-09-27T15:28:15;13.30;1.00
9527;DHT22;4802;51.494;6.770;2022-09-27T15:30:50;13.00;1.00
9527;DHT22;4802;51.494;6.770;2022-09-27T15:33:23;13.10;1.00
9527;DHT22;4802;51.494;6.770;2022-09-27T15:35:55;13.10;1.00
9527;DHT22;4802;51.494;6.770;2022-09-27T15:38:28;13.00;1.00
9527;DHT22;4802;51.494;6.770;2022-09-27T15:41:11;12.90;1.00
9527;DHT22;4802;51.494;6.770;2022-09-27T15:43:43;12.90;1.00
9527;DHT22;4802;51.494;6.770;2022-09-27T15:46:32;12.80;1.00
9527;DHT22;4802;51.494;6.770;2022-09-27T15:49:30;12.80;1.00
9527;DHT22;4802;51.494;6.770;2022-09-27T15:52:01;12.80;1.00
9527;DHT22;4802;51.494;6.770;2022-09-27T15:54:35;12.80;1.00
9527;DHT22;4802;51.494;6.770;2022-09-27T15:57:05;12.80;1.00
9527;DHT22;4802;51.494;6.770;2022-09-27T15:59:35;12.80;1.00
9527;DHT22;4802;51.494;6.770;2022-09-27T16:02:13;12.70;1.00
9527;DHT22;4802;51.494;6.770;2022-09-27T16:04:46;12.70;1.00
9527;DHT22;4802;51.494;6.770;2022-09-27T16:07:16;12.60;1.00
9527;DHT22;4802;51.494;6.770;2022-09-27T16:09:49;12.40;1.00
9527;DHT22;4802;51.494;6.770;2022-09-27T16:12:21;12.30;1.00
9527;DHT22;4802;51.494;6.770;2022-09-27T16:14:51;12.20;1.00
9527;DHT22;4802;51.494;6.770;2022-09-27T16:17:21;12.00;1.00
9527;DHT22;4802;51.494;6.770;2022-09-27T16:19:50;12.00;1.00
9527;DHT22;4802;51.494;6.770;2022-09-27T16:22:19;11.90;1.00
9527;DHT22;4802;51.494;6.770;2022-09-27T16:24:50;11.80;1.00
9527;DHT22;4802;51.494;6.770;2022-09-27T16:27:23;11.80;1.00
9527;DHT22;4802;51.494;6.770;2022-09-27T16:29:54;11.70;1.00
9527;DHT22;4802;51.494;6.770;2022-09-27T16:32:27;11.70;1.00
9527;DHT22;4802;51.494;6.770;2022-09-27T16:34:57;11.60;1.00
9527;DHT22;4802;51.494;6.770;2022-09-27T16:37:26;11.50;1.00
9527;DHT22;4802;51.494;6.770;2022-09-27T16:40:02;11.50;1.00
9527;DHT22;4802;51.494;6.770;2022-09-27T16:42:32;11.50;1.00
9527;DHT22;4802;51.494;6.770;2022-09-27T16:45:01;11.40;1.00
9527;DHT22;4802;51.494;6.770;2022-09-27T16:47:38;11.40;1.00
9527;DHT22;4802;51.494;6.770;2022-09-27T16:50:09;11.40;1.00
9527;DHT22;4802;51.494;6.770;2022-09-27T16:52:56;11.30;1.00
9527;DHT22;4802;51.494;6.770;2022-09-27T16:55:29;11.40;1.00
9527;DHT22;4802;51.494;6.770;2022-09-27T16:57:59;11.70;1.00
9527;DHT22;4802;51.494;6.770;2022-09-27T17:00:31;11.30;1.00
9527;DHT22;4802;51.494;6.770;2022-09-27T17:03:00;11.30;1.00
9527;DHT22;4802;51.494;6.770;2022-09-27T17:05:32;11.40;1.00
9527;DHT22;4802;51.494;6.770;2022-09-27T17:08:04;11.30;1.00
9527;DHT22;4802;51.494;6.770;2022-09-27T17:10:35;11.30;1.00
9527;DHT22;4802;51.494;6.770;2022-09-27T17:13:08;12.20;1.00
9527;DHT22;4802;51.494;6.770;2022-09-27T17:15:40;12.90;1.00
9527;DHT22;4802;51.494;6.770;2022-09-27T17:18:11;13.40;1.00
9527;DHT22;4802;51.494;6.770;2022-09-27T17:20:45;13.50;1.00
9527;DHT22;4802;51.494;6.770;2022-09-27T17:23:16;13.50;1.00
9527;DHT22;4802;51.494;6.770;2022-09-27T17:25:52;13.50;1.00
9527;DHT22;4802;51.494;6.770;2022-09-27T17:28:24;12.80;1.00